Etusivu
METAR-TAF:

METAR-TAF

Lentoasemat :

Rush City Regional Airport

Rush City, Minnesota, Yhdysvallat

Leveyspiiri: 45-41-53N, Pituuspiiri: 092-57-11W, korkeus merenpinnasta: 281 m

Tämänhetkinen sää

Tämä raportti tehtiin 33 minuuttia sitten, kello 09.16 UTC
Tuuli 10 kn luoteesta puuskistuen 15 kn:hen
Lämpötila 6°C
Kosteus 61%
Ilmanpaine 1014 hPa
Näkyvyys: 16.1 km
Hajanaisia pilviä 11000 ft:n korkeudessa

METAR: KROS 260916Z AUTO 32010G15KT 10SM SCT110 06/M01 A2995 RMK AO2 T00551013

Aika: 04:49 (09:49 UTC)


TAF: puuttuu

Säähavainnot ja -ennusteet yli 4000 lentoasemalta (METAR- ja TAF-raportit).

Käytössä olevat sääasemat on merkitty karttaan keltaisilla ja punaisilla pisteillä.

Aseta hiiri pisteen päälle nähdäksesi sääaseman nimen.

Klikkaa sitten nähdäksesi säähavainnot ja -ennusteet.

Kartan vaihtaminen: klikkaa mustalla rastilla varustettuja vihreitä pisteitä, niin voit zoomata sisään; viivalla varustettua vihreää pistettä, niin voit zoomata ulos tai vihreitä nuolia, niin pääset viereisille kartoille.


METAR-TAF: